sensor_id;sensor_type;location;lat;lon;timestamp;P1;durP1;ratioP1;P2;durP2;ratioP2
5085;SDS011;4715;51.660;7.082;2023-06-24T00:02:05;3.20;;;3.00;;
5085;SDS011;4715;51.660;7.082;2023-06-24T00:04:27;3.10;;;2.90;;
5085;SDS011;4715;51.660;7.082;2023-06-24T00:06:48;3.13;;;3.03;;
5085;SDS011;4715;51.660;7.082;2023-06-24T00:09:14;3.67;;;3.47;;
5085;SDS011;4715;51.660;7.082;2023-06-24T00:11:35;3.20;;;3.00;;
5085;SDS011;4715;51.660;7.082;2023-06-24T00:13:57;3.67;;;3.43;;
5085;SDS011;4715;51.660;7.082;2023-06-24T00:16:19;3.13;;;2.93;;
5085;SDS011;4715;51.660;7.082;2023-06-24T00:18:46;3.60;;;3.40;;
5085;SDS011;4715;51.660;7.082;2023-06-24T00:21:08;3.17;;;2.97;;
5085;SDS011;4715;51.660;7.082;2023-06-24T00:23:30;4.17;;;3.77;;
5085;SDS011;4715;51.660;7.082;2023-06-24T00:25:55;2.90;;;2.80;;
5085;SDS011;4715;51.660;7.082;2023-06-24T00:28:18;3.63;;;3.40;;
5085;SDS011;4715;51.660;7.082;2023-06-24T00:30:40;3.40;;;3.20;;
5085;SDS011;4715;51.660;7.082;2023-06-24T00:33:02;3.47;;;3.27;;
5085;SDS011;4715;51.660;7.082;2023-06-24T00:35:24;4.20;;;3.90;;
5085;SDS011;4715;51.660;7.082;2023-06-24T00:37:45;3.50;;;3.30;;
5085;SDS011;4715;51.660;7.082;2023-06-24T00:40:08;3.10;;;2.90;;
5085;SDS011;4715;51.660;7.082;2023-06-24T00:42:37;3.60;;;3.40;;
5085;SDS011;4715;51.660;7.082;2023-06-24T00:44:59;3.20;;;3.00;;
5085;SDS011;4715;51.660;7.082;2023-06-24T00:47:25;2.80;;;2.70;;
5085;SDS011;4715;51.660;7.082;2023-06-24T00:49:48;3.70;;;3.50;;
5085;SDS011;4715;51.660;7.082;2023-06-24T00:52:11;3.13;;;2.93;;
5085;SDS011;4715;51.660;7.082;2023-06-24T00:54:35;3.23;;;2.93;;
5085;SDS011;4715;51.660;7.082;2023-06-24T00:56:57;2.83;;;2.63;;
5085;SDS011;4715;51.660;7.082;2023-06-24T00:59:22;3.23;;;3.03;;
5085;SDS011;4715;51.660;7.082;2023-06-24T01:01:49;2.90;;;2.73;;
5085;SDS011;4715;51.660;7.082;2023-06-24T01:04:13;3.10;;;2.90;;
5085;SDS011;4715;51.660;7.082;2023-06-24T01:06:36;4.30;;;4.00;;
5085;SDS011;4715;51.660;7.082;2023-06-24T01:09:03;3.50;;;3.30;;
5085;SDS011;4715;51.660;7.082;2023-06-24T01:11:25;3.13;;;2.93;;
5085;SDS011;4715;51.660;7.082;2023-06-24T01:13:48;3.10;;;2.90;;
5085;SDS011;4715;51.660;7.082;2023-06-24T01:16:12;3.07;;;2.90;;
5085;SDS011;4715;51.660;7.082;2023-06-24T01:18:43;3.43;;;3.23;;
5085;SDS011;4715;51.660;7.082;2023-06-24T01:21:08;3.57;;;3.37;;
5085;SDS011;4715;51.660;7.082;2023-06-24T01:29:18;3.40;;;3.20;;
5085;SDS011;4715;51.660;7.082;2023-06-24T01:31:53;3.50;;;3.30;;
5085;SDS011;4715;51.660;7.082;2023-06-24T01:34:22;2.93;;;2.73;;
5085;SDS011;4715;51.660;7.082;2023-06-24T01:36:52;3.03;;;2.93;;
5085;SDS011;4715;51.660;7.082;2023-06-24T01:39:18;3.10;;;2.93;;
5085;SDS011;4715;51.660;7.082;2023-06-24T01:41:49;3.50;;;3.30;;
5085;SDS011;4715;51.660;7.082;2023-06-24T01:44:16;3.00;;;2.90;;
5085;SDS011;4715;51.660;7.082;2023-06-24T01:46:39;3.70;;;3.50;;
5085;SDS011;4715;51.660;7.082;2023-06-24T01:49:04;4.53;;;2.57;;
5085;SDS011;4715;51.660;7.082;2023-06-24T01:51:32;2.70;;;2.60;;
5085;SDS011;4715;51.660;7.082;2023-06-24T01:53:58;2.73;;;2.53;;
5085;SDS011;4715;51.660;7.082;2023-06-24T01:56:22;2.80;;;2.60;;
5085;SDS011;4715;51.660;7.082;2023-06-24T01:58:46;3.07;;;2.87;;
5085;SDS011;4715;51.660;7.082;2023-06-24T02:01:09;3.70;;;3.40;;
5085;SDS011;4715;51.660;7.082;2023-06-24T02:03:33;2.90;;;2.70;;
5085;SDS011;4715;51.660;7.082;2023-06-24T02:05:58;2.80;;;2.70;;
5085;SDS011;4715;51.660;7.082;2023-06-24T02:08:21;3.07;;;2.87;;
5085;SDS011;4715;51.660;7.082;2023-06-24T02:10:44;2.50;;;2.40;;
5085;SDS011;4715;51.660;7.082;2023-06-24T02:13:08;6.53;;;2.90;;
5085;SDS011;4715;51.660;7.082;2023-06-24T02:15:31;3.00;;;2.80;;
5085;SDS011;4715;51.660;7.082;2023-06-24T02:17:54;4.03;;;3.73;;
5085;SDS011;4715;51.660;7.082;2023-06-24T02:20:17;3.20;;;2.97;;
5085;SDS011;4715;51.660;7.082;2023-06-24T02:22:43;2.80;;;2.70;;
5085;SDS011;4715;51.660;7.082;2023-06-24T02:25:06;2.90;;;2.80;;
5085;SDS011;4715;51.660;7.082;2023-06-24T02:27:29;3.67;;;3.47;;
5085;SDS011;4715;51.660;7.082;2023-06-24T02:29:51;3.27;;;3.07;;
5085;SDS011;4715;51.660;7.082;2023-06-24T02:32:14;3.00;;;2.80;;
5085;SDS011;4715;51.660;7.082;2023-06-24T02:34:36;3.53;;;3.33;;
5085;SDS011;4715;51.660;7.082;2023-06-24T02:36:58;3.30;;;3.10;;
5085;SDS011;4715;51.660;7.082;2023-06-24T02:39:21;4.03;;;3.73;;
5085;SDS011;4715;51.660;7.082;2023-06-24T02:41:43;3.47;;;3.27;;
5085;SDS011;4715;51.660;7.082;2023-06-24T02:44:07;2.90;;;2.70;;
5085;SDS011;4715;51.660;7.082;2023-06-24T02:46:29;2.90;;;2.80;;
5085;SDS011;4715;51.660;7.082;2023-06-24T02:48:54;3.00;;;2.90;;
5085;SDS011;4715;51.660;7.082;2023-06-24T02:51:17;2.93;;;2.83;;
5085;SDS011;4715;51.660;7.082;2023-06-24T02:53:40;2.90;;;2.80;;
5085;SDS011;4715;51.660;7.082;2023-06-24T02:56:05;2.63;;;2.50;;
5085;SDS011;4715;51.660;7.082;2023-06-24T02:58:29;3.10;;;2.90;;
5085;SDS011;4715;51.660;7.082;2023-06-24T03:00:51;3.20;;;3.00;;
5085;SDS011;4715;51.660;7.082;2023-06-24T03:03:14;2.87;;;2.73;;
5085;SDS011;4715;51.660;7.082;2023-06-24T03:05:36;3.33;;;3.13;;
5085;SDS011;4715;51.660;7.082;2023-06-24T03:07:58;3.53;;;3.33;;
5085;SDS011;4715;51.660;7.082;2023-06-24T03:10:22;3.70;;;3.50;;
5085;SDS011;4715;51.660;7.082;2023-06-24T03:12:46;3.30;;;3.10;;
5085;SDS011;4715;51.660;7.082;2023-06-24T03:15:08;3.00;;;2.83;;
5085;SDS011;4715;51.660;7.082;2023-06-24T03:17:30;4.70;;;4.40;;
5085;SDS011;4715;51.660;7.082;2023-06-24T03:19:52;3.93;;;3.73;;
5085;SDS011;4715;51.660;7.082;2023-06-24T03:22:14;3.50;;;3.30;;
5085;SDS011;4715;51.660;7.082;2023-06-24T03:24:37;3.30;;;3.10;;
5085;SDS011;4715;51.660;7.082;2023-06-24T03:26:58;3.90;;;3.60;;
5085;SDS011;4715;51.660;7.082;2023-06-24T03:29:22;4.03;;;3.73;;
5085;SDS011;4715;51.660;7.082;2023-06-24T03:31:44;2.73;;;2.63;;
5085;SDS011;4715;51.660;7.082;2023-06-24T03:34:06;3.70;;;3.50;;
5085;SDS011;4715;51.660;7.082;2023-06-24T03:36:28;3.37;;;3.17;;
5085;SDS011;4715;51.660;7.082;2023-06-24T03:38:50;3.40;;;3.20;;
5085;SDS011;4715;51.660;7.082;2023-06-24T03:41:12;2.70;;;2.60;;
5085;SDS011;4715;51.660;7.082;2023-06-24T03:43:34;3.77;;;3.50;;
5085;SDS011;4715;51.660;7.082;2023-06-24T03:45:57;3.30;;;3.00;;
5085;SDS011;4715;51.660;7.082;2023-06-24T03:48:19;3.37;;;3.17;;
5085;SDS011;4715;51.660;7.082;2023-06-24T03:50:41;3.20;;;3.00;;
5085;SDS011;4715;51.660;7.082;2023-06-24T03:53:03;3.53;;;3.33;;
5085;SDS011;4715;51.660;7.082;2023-06-24T03:55:25;3.50;;;3.30;;
5085;SDS011;4715;51.660;7.082;2023-06-24T03:57:47;3.33;;;3.07;;
5085;SDS011;4715;51.660;7.082;2023-06-24T04:00:09;4.00;;;3.80;;
5085;SDS011;4715;51.660;7.082;2023-06-24T04:02:36;3.50;;;3.30;;
5085;SDS011;4715;51.660;7.082;2023-06-24T04:04:58;3.57;;;3.37;;
5085;SDS011;4715;51.660;7.082;2023-06-24T04:07:20;4.63;;;3.90;;
5085;SDS011;4715;51.660;7.082;2023-06-24T04:09:47;3.40;;;3.20;;
5085;SDS011;4715;51.660;7.082;2023-06-24T04:12:09;3.80;;;3.30;;
5085;SDS011;4715;51.660;7.082;2023-06-24T04:14:31;3.60;;;3.40;;
5085;SDS011;4715;51.660;7.082;2023-06-24T04:16:53;3.80;;;3.50;;
5085;SDS011;4715;51.660;7.082;2023-06-24T04:19:16;3.70;;;3.50;;
5085;SDS011;4715;51.660;7.082;2023-06-24T04:21:38;3.50;;;3.30;;
5085;SDS011;4715;51.660;7.082;2023-06-24T04:24:00;3.73;;;3.23;;
5085;SDS011;4715;51.660;7.082;2023-06-24T04:26:21;3.50;;;3.30;;
5085;SDS011;4715;51.660;7.082;2023-06-24T04:28:43;2.90;;;2.80;;
5085;SDS011;4715;51.660;7.082;2023-06-24T04:31:05;2.80;;;2.70;;
5085;SDS011;4715;51.660;7.082;2023-06-24T04:33:27;3.00;;;2.90;;
5085;SDS011;4715;51.660;7.082;2023-06-24T04:35:50;2.97;;;2.87;;
5085;SDS011;4715;51.660;7.082;2023-06-24T04:38:12;2.60;;;2.50;;
5085;SDS011;4715;51.660;7.082;2023-06-24T04:40:38;3.23;;;3.03;;
5085;SDS011;4715;51.660;7.082;2023-06-24T04:42:59;3.23;;;3.03;;
5085;SDS011;4715;51.660;7.082;2023-06-24T04:45:21;3.07;;;2.97;;
5085;SDS011;4715;51.660;7.082;2023-06-24T04:47:43;3.20;;;3.00;;
5085;SDS011;4715;51.660;7.082;2023-06-24T04:50:06;3.33;;;3.13;;
5085;SDS011;4715;51.660;7.082;2023-06-24T04:52:31;2.50;;;2.40;;
5085;SDS011;4715;51.660;7.082;2023-06-24T04:54:52;2.40;;;2.30;;
5085;SDS011;4715;51.660;7.082;2023-06-24T04:57:23;3.33;;;3.13;;
5085;SDS011;4715;51.660;7.082;2023-06-24T04:59:45;3.10;;;2.80;;
5085;SDS011;4715;51.660;7.082;2023-06-24T05:02:07;2.77;;;2.57;;
5085;SDS011;4715;51.660;7.082;2023-06-24T05:04:29;2.90;;;2.70;;
5085;SDS011;4715;51.660;7.082;2023-06-24T05:06:52;3.20;;;3.00;;
5085;SDS011;4715;51.660;7.082;2023-06-24T05:09:15;3.03;;;2.83;;
5085;SDS011;4715;51.660;7.082;2023-06-24T05:11:37;2.20;;;2.10;;
5085;SDS011;4715;51.660;7.082;2023-06-24T05:13:59;2.80;;;2.60;;
5085;SDS011;4715;51.660;7.082;2023-06-24T05:16:21;2.70;;;2.60;;
5085;SDS011;4715;51.660;7.082;2023-06-24T05:18:44;3.77;;;3.57;;
5085;SDS011;4715;51.660;7.082;2023-06-24T05:21:06;2.90;;;2.70;;
5085;SDS011;4715;51.660;7.082;2023-06-24T05:23:28;3.87;;;3.57;;
5085;SDS011;4715;51.660;7.082;2023-06-24T05:25:51;3.80;;;3.57;;
5085;SDS011;4715;51.660;7.082;2023-06-24T05:28:13;3.67;;;3.47;;
5085;SDS011;4715;51.660;7.082;2023-06-24T05:30:35;3.53;;;3.33;;
5085;SDS011;4715;51.660;7.082;2023-06-24T05:32:56;3.73;;;3.53;;
5085;SDS011;4715;51.660;7.082;2023-06-24T05:35:18;3.50;;;3.30;;
5085;SDS011;4715;51.660;7.082;2023-06-24T05:37:40;4.13;;;3.83;;
5085;SDS011;4715;51.660;7.082;2023-06-24T05:40:02;4.53;;;4.23;;
5085;SDS011;4715;51.660;7.082;2023-06-24T05:42:26;5.30;;;4.70;;
5085;SDS011;4715;51.660;7.082;2023-06-24T05:44:48;5.00;;;4.47;;
5085;SDS011;4715;51.660;7.082;2023-06-24T05:47:10;5.47;;;5.17;;
5085;SDS011;4715;51.660;7.082;2023-06-24T05:49:31;5.13;;;4.83;;
5085;SDS011;4715;51.660;7.082;2023-06-24T05:51:53;5.23;;;4.83;;
5085;SDS011;4715;51.660;7.082;2023-06-24T05:54:15;6.10;;;5.13;;
5085;SDS011;4715;51.660;7.082;2023-06-24T05:56:37;5.73;;;5.23;;
5085;SDS011;4715;51.660;7.082;2023-06-24T05:59:00;5.97;;;5.17;;
5085;SDS011;4715;51.660;7.082;2023-06-24T06:01:22;5.67;;;5.17;;
5085;SDS011;4715;51.660;7.082;2023-06-24T06:03:44;5.07;;;4.67;;
5085;SDS011;4715;51.660;7.082;2023-06-24T06:06:05;6.57;;;5.97;;
5085;SDS011;4715;51.660;7.082;2023-06-24T06:08:28;8.20;;;6.10;;
5085;SDS011;4715;51.660;7.082;2023-06-24T06:10:49;6.93;;;6.40;;
5085;SDS011;4715;51.660;7.082;2023-06-24T06:13:14;6.67;;;6.07;;
5085;SDS011;4715;51.660;7.082;2023-06-24T06:15:38;6.30;;;5.70;;
5085;SDS011;4715;51.660;7.082;2023-06-24T06:17:59;9.63;;;6.57;;
5085;SDS011;4715;51.660;7.082;2023-06-24T06:20:22;5.27;;;4.87;;
5085;SDS011;4715;51.660;7.082;2023-06-24T06:22:44;7.37;;;6.80;;
5085;SDS011;4715;51.660;7.082;2023-06-24T06:25:06;6.83;;;6.13;;
5085;SDS011;4715;51.660;7.082;2023-06-24T06:27:29;6.63;;;6.00;;
5085;SDS011;4715;51.660;7.082;2023-06-24T06:29:51;6.50;;;5.90;;
5085;SDS011;4715;51.660;7.082;2023-06-24T06:32:14;6.00;;;5.50;;
5085;SDS011;4715;51.660;7.082;2023-06-24T06:34:36;8.73;;;6.10;;
5085;SDS011;4715;51.660;7.082;2023-06-24T06:36:58;7.30;;;6.00;;
5085;SDS011;4715;51.660;7.082;2023-06-24T06:39:20;5.60;;;5.10;;
5085;SDS011;4715;51.660;7.082;2023-06-24T06:41:42;6.10;;;5.60;;
5085;SDS011;4715;51.660;7.082;2023-06-24T06:44:04;7.50;;;6.67;;
5085;SDS011;4715;51.660;7.082;2023-06-24T06:46:26;8.20;;;7.50;;
5085;SDS011;4715;51.660;7.082;2023-06-24T06:48:50;7.13;;;6.43;;
5085;SDS011;4715;51.660;7.082;2023-06-24T06:51:12;8.30;;;7.50;;
5085;SDS011;4715;51.660;7.082;2023-06-24T06:53:34;7.67;;;6.93;;
5085;SDS011;4715;51.660;7.082;2023-06-24T06:55:56;7.77;;;7.07;;
5085;SDS011;4715;51.660;7.082;2023-06-24T06:58:18;8.97;;;7.50;;
5085;SDS011;4715;51.660;7.082;2023-06-24T07:00:40;10.43;;;9.33;;
5085;SDS011;4715;51.660;7.082;2023-06-24T07:03:02;8.33;;;7.57;;
5085;SDS011;4715;51.660;7.082;2023-06-24T07:05:26;7.40;;;6.70;;
5085;SDS011;4715;51.660;7.082;2023-06-24T07:07:48;8.63;;;7.70;;
5085;SDS011;4715;51.660;7.082;2023-06-24T07:10:10;12.83;;;7.10;;
5085;SDS011;4715;51.660;7.082;2023-06-24T07:12:32;12.90;;;8.30;;
5085;SDS011;4715;51.660;7.082;2023-06-24T07:14:54;9.50;;;8.70;;
5085;SDS011;4715;51.660;7.082;2023-06-24T07:17:16;9.90;;;8.63;;
5085;SDS011;4715;51.660;7.082;2023-06-24T07:19:38;10.47;;;8.90;;
5085;SDS011;4715;51.660;7.082;2023-06-24T07:22:01;11.00;;;8.47;;
5085;SDS011;4715;51.660;7.082;2023-06-24T07:24:23;9.57;;;8.13;;
5085;SDS011;4715;51.660;7.082;2023-06-24T07:26:45;9.10;;;7.97;;
5085;SDS011;4715;51.660;7.082;2023-06-24T07:29:08;8.10;;;7.37;;
5085;SDS011;4715;51.660;7.082;2023-06-24T07:31:29;7.43;;;6.83;;
5085;SDS011;4715;51.660;7.082;2023-06-24T07:33:51;9.10;;;8.00;;
5085;SDS011;4715;51.660;7.082;2023-06-24T07:36:15;8.10;;;7.40;;
5085;SDS011;4715;51.660;7.082;2023-06-24T07:38:38;7.37;;;6.77;;
5085;SDS011;4715;51.660;7.082;2023-06-24T07:41:00;8.43;;;7.60;;
5085;SDS011;4715;51.660;7.082;2023-06-24T07:43:22;8.53;;;7.73;;
5085;SDS011;4715;51.660;7.082;2023-06-24T07:48:16;6.50;;;6.00;;
5085;SDS011;4715;51.660;7.082;2023-06-24T07:50:38;5.93;;;5.43;;
5085;SDS011;4715;51.660;7.082;2023-06-24T07:53:01;7.37;;;6.73;;
5085;SDS011;4715;51.660;7.082;2023-06-24T07:55:39;7.53;;;6.83;;
5085;SDS011;4715;51.660;7.082;2023-06-24T07:58:02;8.70;;;7.90;;
5085;SDS011;4715;51.660;7.082;2023-06-24T08:00:28;7.53;;;6.90;;
5085;SDS011;4715;51.660;7.082;2023-06-24T08:02:50;8.80;;;8.00;;
5085;SDS011;4715;51.660;7.082;2023-06-24T08:05:13;8.00;;;7.20;;
5085;SDS011;4715;51.660;7.082;2023-06-24T08:07:35;10.00;;;9.00;;
5085;SDS011;4715;51.660;7.082;2023-06-24T08:09:57;11.20;;;9.93;;
5085;SDS011;4715;51.660;7.082;2023-06-24T08:12:20;9.30;;;8.40;;
5085;SDS011;4715;51.660;7.082;2023-06-24T08:14:43;9.23;;;8.30;;
5085;SDS011;4715;51.660;7.082;2023-06-24T08:17:05;9.50;;;8.23;;
5085;SDS011;4715;51.660;7.082;2023-06-24T08:19:27;10.27;;;8.90;;
5085;SDS011;4715;51.660;7.082;2023-06-24T08:21:49;9.63;;;8.73;;
5085;SDS011;4715;51.660;7.082;2023-06-24T08:24:11;9.17;;;8.07;;
5085;SDS011;4715;51.660;7.082;2023-06-24T08:29:16;9.43;;;8.23;;
5085;SDS011;4715;51.660;7.082;2023-06-24T08:31:37;10.50;;;8.23;;
5085;SDS011;4715;51.660;7.082;2023-06-24T08:33:59;14.67;;;10.67;;
5085;SDS011;4715;51.660;7.082;2023-06-24T08:36:22;10.93;;;9.70;;
5085;SDS011;4715;51.660;7.082;2023-06-24T08:38:44;12.80;;;9.17;;
5085;SDS011;4715;51.660;7.082;2023-06-24T08:41:07;10.83;;;8.33;;
5085;SDS011;4715;51.660;7.082;2023-06-24T08:43:30;10.80;;;9.70;;
5085;SDS011;4715;51.660;7.082;2023-06-24T08:45:54;8.50;;;7.07;;
5085;SDS011;4715;51.660;7.082;2023-06-24T08:51:00;13.57;;;9.60;;
5085;SDS011;4715;51.660;7.082;2023-06-24T08:53:24;10.77;;;8.70;;
5085;SDS011;4715;51.660;7.082;2023-06-24T08:55:48;15.37;;;10.57;;
5085;SDS011;4715;51.660;7.082;2023-06-24T08:58:14;10.00;;;8.70;;
5085;SDS011;4715;51.660;7.082;2023-06-24T09:00:36;11.43;;;9.67;;
5085;SDS011;4715;51.660;7.082;2023-06-24T09:02:59;7.67;;;6.97;;
5085;SDS011;4715;51.660;7.082;2023-06-24T09:05:21;7.63;;;6.93;;
5085;SDS011;4715;51.660;7.082;2023-06-24T09:07:44;10.83;;;8.70;;
5085;SDS011;4715;51.660;7.082;2023-06-24T09:10:06;10.23;;;7.57;;
5085;SDS011;4715;51.660;7.082;2023-06-24T09:12:31;7.23;;;6.10;;
5085;SDS011;4715;51.660;7.082;2023-06-24T09:17:19;5.63;;;5.13;;
5085;SDS011;4715;51.660;7.082;2023-06-24T09:19:43;6.10;;;5.60;;
5085;SDS011;4715;51.660;7.082;2023-06-24T09:22:06;6.23;;;5.70;;
5085;SDS011;4715;51.660;7.082;2023-06-24T09:24:29;5.20;;;4.80;;
5085;SDS011;4715;51.660;7.082;2023-06-24T09:26:51;6.20;;;5.70;;
5085;SDS011;4715;51.660;7.082;2023-06-24T09:29:18;6.67;;;6.00;;
5085;SDS011;4715;51.660;7.082;2023-06-24T09:31:46;7.77;;;6.33;;
5085;SDS011;4715;51.660;7.082;2023-06-24T09:34:12;7.70;;;6.00;;
5085;SDS011;4715;51.660;7.082;2023-06-24T09:36:37;6.60;;;5.23;;
5085;SDS011;4715;51.660;7.082;2023-06-24T09:39:05;5.70;;;4.50;;
5085;SDS011;4715;51.660;7.082;2023-06-24T09:41:27;4.90;;;4.53;;
5085;SDS011;4715;51.660;7.082;2023-06-24T09:43:49;5.50;;;4.80;;
5085;SDS011;4715;51.660;7.082;2023-06-24T09:46:11;5.23;;;4.60;;
5085;SDS011;4715;51.660;7.082;2023-06-24T09:48:34;4.77;;;4.43;;
5085;SDS011;4715;51.660;7.082;2023-06-24T09:50:57;4.87;;;4.47;;
5085;SDS011;4715;51.660;7.082;2023-06-24T09:53:23;4.40;;;4.10;;
5085;SDS011;4715;51.660;7.082;2023-06-24T09:55:46;4.40;;;4.10;;
5085;SDS011;4715;51.660;7.082;2023-06-24T09:58:08;4.03;;;3.73;;
5085;SDS011;4715;51.660;7.082;2023-06-24T10:00:32;3.30;;;3.10;;
5085;SDS011;4715;51.660;7.082;2023-06-24T10:02:55;4.60;;;4.20;;
5085;SDS011;4715;51.660;7.082;2023-06-24T10:05:19;3.50;;;3.30;;
5085;SDS011;4715;51.660;7.082;2023-06-24T10:07:41;3.77;;;3.20;;
5085;SDS011;4715;51.660;7.082;2023-06-24T10:10:06;4.63;;;4.33;;
5085;SDS011;4715;51.660;7.082;2023-06-24T10:12:31;4.60;;;4.30;;
5085;SDS011;4715;51.660;7.082;2023-06-24T10:14:54;3.97;;;3.50;;
5085;SDS011;4715;51.660;7.082;2023-06-24T10:17:17;8.53;;;5.10;;
5085;SDS011;4715;51.660;7.082;2023-06-24T10:19:39;4.43;;;4.13;;
5085;SDS011;4715;51.660;7.082;2023-06-24T10:22:02;4.60;;;4.17;;
5085;SDS011;4715;51.660;7.082;2023-06-24T10:24:28;6.47;;;4.30;;
5085;SDS011;4715;51.660;7.082;2023-06-24T10:26:52;4.13;;;3.20;;
5085;SDS011;4715;51.660;7.082;2023-06-24T10:29:14;5.83;;;4.00;;
5085;SDS011;4715;51.660;7.082;2023-06-24T10:31:50;3.63;;;3.33;;
5085;SDS011;4715;51.660;7.082;2023-06-24T10:34:19;3.70;;;3.50;;
5085;SDS011;4715;51.660;7.082;2023-06-24T10:36:45;3.33;;;3.13;;
5085;SDS011;4715;51.660;7.082;2023-06-24T10:45:02;4.63;;;3.70;;
5085;SDS011;4715;51.660;7.082;2023-06-24T10:47:37;3.67;;;3.30;;
5085;SDS011;4715;51.660;7.082;2023-06-24T10:50:01;4.37;;;3.50;;
5085;SDS011;4715;51.660;7.082;2023-06-24T10:52:26;3.10;;;2.90;;
5085;SDS011;4715;51.660;7.082;2023-06-24T10:54:48;3.27;;;3.03;;
5085;SDS011;4715;51.660;7.082;2023-06-24T10:57:11;5.67;;;3.60;;
5085;SDS011;4715;51.660;7.082;2023-06-24T10:59:35;3.90;;;3.60;;
5085;SDS011;4715;51.660;7.082;2023-06-24T11:02:00;5.13;;;4.73;;
5085;SDS011;4715;51.660;7.082;2023-06-24T11:04:22;3.57;;;3.37;;
5085;SDS011;4715;51.660;7.082;2023-06-24T11:06:56;3.37;;;3.07;;
5085;SDS011;4715;51.660;7.082;2023-06-24T11:09:19;5.80;;;3.03;;
5085;SDS011;4715;51.660;7.082;2023-06-24T11:11:41;3.87;;;3.57;;
5085;SDS011;4715;51.660;7.082;2023-06-24T11:14:03;4.70;;;4.30;;
5085;SDS011;4715;51.660;7.082;2023-06-24T11:16:26;4.23;;;3.57;;
5085;SDS011;4715;51.660;7.082;2023-06-24T11:18:50;3.50;;;3.30;;
5085;SDS011;4715;51.660;7.082;2023-06-24T11:21:16;3.50;;;3.20;;
5085;SDS011;4715;51.660;7.082;2023-06-24T11:23:37;3.50;;;3.20;;
5085;SDS011;4715;51.660;7.082;2023-06-24T11:25:59;3.87;;;3.57;;
5085;SDS011;4715;51.660;7.082;2023-06-24T11:28:25;2.77;;;2.67;;
5085;SDS011;4715;51.660;7.082;2023-06-24T11:30:54;3.43;;;3.17;;
5085;SDS011;4715;51.660;7.082;2023-06-24T11:33:29;4.50;;;4.00;;
5085;SDS011;4715;51.660;7.082;2023-06-24T11:35:51;3.67;;;3.37;;
5085;SDS011;4715;51.660;7.082;2023-06-24T11:38:16;3.60;;;3.03;;
5085;SDS011;4715;51.660;7.082;2023-06-24T11:40:38;4.43;;;4.10;;
5085;SDS011;4715;51.660;7.082;2023-06-24T11:43:00;4.03;;;3.37;;
5085;SDS011;4715;51.660;7.082;2023-06-24T11:45:23;3.30;;;3.00;;
5085;SDS011;4715;51.660;7.082;2023-06-24T11:47:45;6.40;;;4.30;;
5085;SDS011;4715;51.660;7.082;2023-06-24T11:50:10;3.77;;;3.53;;
5085;SDS011;4715;51.660;7.082;2023-06-24T11:52:32;2.80;;;2.60;;
5085;SDS011;4715;51.660;7.082;2023-06-24T11:54:59;5.20;;;3.20;;
5085;SDS011;4715;51.660;7.082;2023-06-24T11:57:21;3.90;;;3.53;;
5085;SDS011;4715;51.660;7.082;2023-06-24T12:00:12;3.83;;;3.50;;
5085;SDS011;4715;51.660;7.082;2023-06-24T12:02:36;3.07;;;2.87;;
5085;SDS011;4715;51.660;7.082;2023-06-24T12:04:58;3.00;;;2.80;;
5085;SDS011;4715;51.660;7.082;2023-06-24T12:07:21;4.10;;;3.30;;
5085;SDS011;4715;51.660;7.082;2023-06-24T12:09:44;3.30;;;3.10;;
5085;SDS011;4715;51.660;7.082;2023-06-24T12:12:09;4.50;;;3.00;;
5085;SDS011;4715;51.660;7.082;2023-06-24T12:14:32;3.33;;;3.03;;
5085;SDS011;4715;51.660;7.082;2023-06-24T12:16:54;2.90;;;2.70;;
5085;SDS011;4715;51.660;7.082;2023-06-24T12:19:18;3.23;;;3.00;;
5085;SDS011;4715;51.660;7.082;2023-06-24T12:21:42;3.00;;;2.80;;
5085;SDS011;4715;51.660;7.082;2023-06-24T12:24:06;3.33;;;3.13;;
5085;SDS011;4715;51.660;7.082;2023-06-24T12:26:28;3.20;;;2.90;;
5085;SDS011;4715;51.660;7.082;2023-06-24T12:28:53;3.33;;;2.67;;
5085;SDS011;4715;51.660;7.082;2023-06-24T12:31:16;3.00;;;2.50;;
5085;SDS011;4715;51.660;7.082;2023-06-24T12:33:38;2.77;;;2.57;;
5085;SDS011;4715;51.660;7.082;2023-06-24T12:36:01;2.63;;;2.43;;
5085;SDS011;4715;51.660;7.082;2023-06-24T12:38:26;2.80;;;2.47;;
5085;SDS011;4715;51.660;7.082;2023-06-24T12:40:52;4.10;;;2.80;;
5085;SDS011;4715;51.660;7.082;2023-06-24T12:43:14;2.83;;;2.63;;
5085;SDS011;4715;51.660;7.082;2023-06-24T12:45:36;3.47;;;3.17;;
5085;SDS011;4715;51.660;7.082;2023-06-24T12:48:03;2.73;;;2.50;;
5085;SDS011;4715;51.660;7.082;2023-06-24T12:50:27;3.07;;;2.87;;
5085;SDS011;4715;51.660;7.082;2023-06-24T12:52:51;3.10;;;2.90;;
5085;SDS011;4715;51.660;7.082;2023-06-24T12:55:13;2.27;;;2.17;;
5085;SDS011;4715;51.660;7.082;2023-06-24T12:57:36;2.30;;;2.20;;
5085;SDS011;4715;51.660;7.082;2023-06-24T12:59:58;2.07;;;1.97;;
5085;SDS011;4715;51.660;7.082;2023-06-24T13:02:20;1.90;;;1.80;;
5085;SDS011;4715;51.660;7.082;2023-06-24T13:04:42;2.97;;;2.77;;
5085;SDS011;4715;51.660;7.082;2023-06-24T13:07:04;2.40;;;2.30;;
5085;SDS011;4715;51.660;7.082;2023-06-24T13:09:27;6.30;;;3.33;;
5085;SDS011;4715;51.660;7.082;2023-06-24T13:11:50;3.23;;;3.00;;
5085;SDS011;4715;51.660;7.082;2023-06-24T13:14:13;3.33;;;3.13;;
5085;SDS011;4715;51.660;7.082;2023-06-24T13:16:35;2.73;;;2.53;;
5085;SDS011;4715;51.660;7.082;2023-06-24T13:18:57;3.00;;;2.80;;
5085;SDS011;4715;51.660;7.082;2023-06-24T13:21:19;2.37;;;2.27;;
5085;SDS011;4715;51.660;7.082;2023-06-24T13:23:41;4.43;;;2.77;;
5085;SDS011;4715;51.660;7.082;2023-06-24T13:26:03;2.90;;;2.70;;
5085;SDS011;4715;51.660;7.082;2023-06-24T13:28:27;3.87;;;3.07;;
5085;SDS011;4715;51.660;7.082;2023-06-24T13:30:50;3.03;;;2.83;;
5085;SDS011;4715;51.660;7.082;2023-06-24T13:33:14;2.70;;;2.60;;
5085;SDS011;4715;51.660;7.082;2023-06-24T13:35:44;2.37;;;2.27;;
5085;SDS011;4715;51.660;7.082;2023-06-24T13:38:06;2.40;;;2.30;;
5085;SDS011;4715;51.660;7.082;2023-06-24T13:40:28;2.60;;;2.50;;
5085;SDS011;4715;51.660;7.082;2023-06-24T13:42:51;2.40;;;2.30;;
5085;SDS011;4715;51.660;7.082;2023-06-24T13:45:15;2.33;;;2.23;;
5085;SDS011;4715;51.660;7.082;2023-06-24T13:47:38;2.30;;;2.20;;
5085;SDS011;4715;51.660;7.082;2023-06-24T13:50:00;2.77;;;2.57;;
5085;SDS011;4715;51.660;7.082;2023-06-24T13:52:22;2.70;;;2.50;;
5085;SDS011;4715;51.660;7.082;2023-06-24T13:54:44;2.60;;;2.40;;
5085;SDS011;4715;51.660;7.082;2023-06-24T13:57:07;3.57;;;3.27;;
5085;SDS011;4715;51.660;7.082;2023-06-24T13:59:28;3.10;;;2.90;;
5085;SDS011;4715;51.660;7.082;2023-06-24T14:01:50;3.00;;;2.80;;
5085;SDS011;4715;51.660;7.082;2023-06-24T14:04:14;2.73;;;2.53;;
5085;SDS011;4715;51.660;7.082;2023-06-24T14:06:36;3.27;;;3.07;;
5085;SDS011;4715;51.660;7.082;2023-06-24T14:08:58;3.80;;;2.60;;
5085;SDS011;4715;51.660;7.082;2023-06-24T14:11:21;2.90;;;2.70;;
5085;SDS011;4715;51.660;7.082;2023-06-24T14:13:43;2.17;;;2.07;;
5085;SDS011;4715;51.660;7.082;2023-06-24T14:16:05;2.63;;;2.43;;
5085;SDS011;4715;51.660;7.082;2023-06-24T14:18:28;2.73;;;2.53;;
5085;SDS011;4715;51.660;7.082;2023-06-24T14:20:53;2.53;;;2.40;;
5085;SDS011;4715;51.660;7.082;2023-06-24T14:23:15;2.33;;;2.23;;
5085;SDS011;4715;51.660;7.082;2023-06-24T14:25:37;3.10;;;2.90;;
5085;SDS011;4715;51.660;7.082;2023-06-24T14:28:00;2.90;;;2.70;;
5085;SDS011;4715;51.660;7.082;2023-06-24T14:30:22;2.87;;;2.67;;
5085;SDS011;4715;51.660;7.082;2023-06-24T14:32:44;3.00;;;2.80;;
5085;SDS011;4715;51.660;7.082;2023-06-24T14:35:07;2.30;;;2.20;;
5085;SDS011;4715;51.660;7.082;2023-06-24T14:37:34;2.83;;;2.63;;
5085;SDS011;4715;51.660;7.082;2023-06-24T14:39:56;2.60;;;2.50;;
5085;SDS011;4715;51.660;7.082;2023-06-24T14:42:18;3.37;;;3.17;;
5085;SDS011;4715;51.660;7.082;2023-06-24T14:44:42;4.50;;;4.10;;
5085;SDS011;4715;51.660;7.082;2023-06-24T14:47:06;2.70;;;2.50;;
5085;SDS011;4715;51.660;7.082;2023-06-24T14:49:28;2.30;;;2.20;;
5085;SDS011;4715;51.660;7.082;2023-06-24T14:51:51;2.07;;;1.97;;
5085;SDS011;4715;51.660;7.082;2023-06-24T14:54:15;2.60;;;2.50;;
5085;SDS011;4715;51.660;7.082;2023-06-24T14:56:38;2.63;;;2.50;;
5085;SDS011;4715;51.660;7.082;2023-06-24T14:59:00;2.33;;;2.23;;
5085;SDS011;4715;51.660;7.082;2023-06-24T15:01:23;2.00;;;1.90;;
5085;SDS011;4715;51.660;7.082;2023-06-24T15:03:46;4.50;;;2.30;;
5085;SDS011;4715;51.660;7.082;2023-06-24T15:06:08;2.50;;;2.40;;
5085;SDS011;4715;51.660;7.082;2023-06-24T15:08:31;2.60;;;2.50;;
5085;SDS011;4715;51.660;7.082;2023-06-24T15:10:55;3.00;;;2.80;;
5085;SDS011;4715;51.660;7.082;2023-06-24T15:13:17;3.47;;;3.17;;